首页
METAR-TAF:

METAR-TAF

机场 :

里加国际机场

里加, 拉脱维亚

纬度: 56-55N, 经度: 023-58E, 海拔: 10米

当前天气观测

该预报发布于33分钟前的10:50 UTC
风速1节,风向西
温度 9°C
湿度 81%
气压 1033 hPa
能见度10公里或以上
多云层高于2400英尺
多云层高于3300英尺

METAR: EVRA 151050Z 27001KT 9999 BKN024 BKN033 09/06 Q1033 R18/290195 NOSIG

时间: 13:23 (11:23 UTC)

预报

该预报发布于3小时和17分钟前的08:06 UTC
预报有效从15日的 09点(UTC)到 16日的 09点(UTC)
风速5节,风向
能见度10公里或以上
多云层高于2000英尺
短暂存在
从 15日的 16点(UTC)到 15日的 21点(UTC)
能見度: 0600
多云层高于200英尺
短暂存在
从 15日的 21点(UTC)到 15日的 23点(UTC)
能見度: 2000
多云层高于200英尺
浅雾, 轻雾
短暂存在
从 16日的 00点(UTC)到 16日的 09点(UTC)
能見度: 0600
层高于100英尺

TAF: EVRA 150806Z 1509/1609 18005KT 9999 BKN020 TEMPO 1516/1521 0600 FG BKN002 TEMPO 1521/1523 2000 MIFG BR BKN002 TEMPO 1600/1609 0600 FG VV001

超过4000个机场的气象观测和天气预报(METAR&TAF报告)。

可查询的气象台以黄色和红色小点在地图上表示。

将鼠标移到小点上方,可查看气象台名称。

然后点击查看天气观测和预报。

如需切换地图:点击带黑十字的绿色按钮放大地图;点击带横线的绿色按钮缩小地图;或者点击绿色箭头查看邻近地区的地图。


METAR-TAF: